createdAt,value
2022-11-24T00:04:40.363Z,2.05
2022-11-24T00:09:42.134Z,2.08
2022-11-24T00:14:44.220Z,2.18
2022-11-24T00:19:46.046Z,2.24
2022-11-24T00:24:47.849Z,2.24
2022-11-24T00:29:49.603Z,2.28
2022-11-24T00:34:51.366Z,2.25
2022-11-24T00:39:53.153Z,2.25
2022-11-24T00:44:54.915Z,2.28
2022-11-24T00:49:56.770Z,2.32
2022-11-24T00:54:58.540Z,2.31
2022-11-24T01:00:00.361Z,2.34
2022-11-24T01:05:03.498Z,2.34
2022-11-24T01:10:05.837Z,2.30
2022-11-24T01:15:08.026Z,2.29
2022-11-24T01:20:10.363Z,2.36
2022-11-24T01:25:12.355Z,2.34
2022-11-24T01:30:14.151Z,2.38
2022-11-24T01:35:15.937Z,2.37
2022-11-24T01:40:17.735Z,2.35
2022-11-24T01:45:36.251Z,2.31
2022-11-24T01:50:38.101Z,2.34
2022-11-24T01:55:41.393Z,2.38
2022-11-24T02:00:45.560Z,2.34
2022-11-24T02:06:05.005Z,2.42
2022-11-24T02:11:06.826Z,2.40
2022-11-24T02:16:11.860Z,2.42
2022-11-24T02:21:16.238Z,2.34
2022-11-24T02:26:36.314Z,2.39
2022-11-24T02:31:41.666Z,2.39
2022-11-24T02:36:43.526Z,2.39
2022-11-24T02:41:54.305Z,2.41
2022-11-24T02:47:03.991Z,2.44
2022-11-24T02:52:07.033Z,2.42
2022-11-24T02:57:09.336Z,2.47
2022-11-24T03:02:11.102Z,2.48
2022-11-24T03:07:12.928Z,2.50
2022-11-24T03:12:15.011Z,2.47
2022-11-24T03:17:16.768Z,2.43
2022-11-24T03:22:18.551Z,2.39
2022-11-24T03:27:21.099Z,2.37
2022-11-24T03:32:23.017Z,2.47
2022-11-24T03:37:24.824Z,2.43
2022-11-24T03:42:26.626Z,2.47
2022-11-24T03:47:28.407Z,2.54
2022-11-24T03:52:30.225Z,2.56
2022-11-24T03:57:31.991Z,2.57
2022-11-24T04:02:33.812Z,2.59
2022-11-24T04:07:35.737Z,2.61
2022-11-24T04:12:46.379Z,2.66
2022-11-24T04:17:49.747Z,2.64
2022-11-24T04:22:52.247Z,2.65
2022-11-24T04:27:56.062Z,2.63
2022-11-24T04:32:57.851Z,2.65
2022-11-24T04:38:03.061Z,2.61
2022-11-24T04:43:04.836Z,2.58
2022-11-24T04:48:06.708Z,2.57
2022-11-24T04:53:10.353Z,2.60
2022-11-24T04:58:12.412Z,2.54
2022-11-24T05:03:15.350Z,2.53
2022-11-24T05:08:17.066Z,2.53
2022-11-24T05:13:18.758Z,2.50
2022-11-24T05:18:20.422Z,2.43
2022-11-24T05:23:22.222Z,2.38
2022-11-24T05:28:23.958Z,2.43
2022-11-24T05:33:28.251Z,2.40
2022-11-24T05:38:30.892Z,2.47
2022-11-24T05:43:32.652Z,2.49
2022-11-24T05:48:34.346Z,2.51
2022-11-24T05:53:36.017Z,2.54
2022-11-24T05:58:37.609Z,2.54
2022-11-24T06:03:39.184Z,2.58
2022-11-24T06:08:40.769Z,2.58
2022-11-24T06:13:42.672Z,2.57
2022-11-24T06:18:44.385Z,2.62
2022-11-24T06:23:48.618Z,2.60
2022-11-24T06:28:50.142Z,2.57
2022-11-24T06:33:51.714Z,2.60
2022-11-24T06:38:54.006Z,2.49
2022-11-24T06:43:55.677Z,2.46
2022-11-24T06:48:57.433Z,2.38
2022-11-24T06:53:59.200Z,2.48
2022-11-24T06:59:01.338Z,2.59
2022-11-24T07:04:03.135Z,2.62
2022-11-24T07:09:04.855Z,2.76
2022-11-24T07:14:06.959Z,2.84
2022-11-24T07:19:10.748Z,2.93
2022-11-24T07:24:12.431Z,2.89
2022-11-24T07:29:14.049Z,2.96
2022-11-24T07:34:15.677Z,3.07
2022-11-24T07:39:17.765Z,3.15
2022-11-24T07:44:19.365Z,3.20
2022-11-24T07:49:20.951Z,3.29
2022-11-24T07:54:22.557Z,3.40
2022-11-24T07:59:24.137Z,3.39
2022-11-24T08:04:25.720Z,3.44
2022-11-24T08:09:27.253Z,3.41
2022-11-24T08:14:29.040Z,3.55
2022-11-24T08:19:32.312Z,3.45
2022-11-24T08:24:34.029Z,3.49
2022-11-24T08:29:35.735Z,3.40
2022-11-24T08:34:37.620Z,3.39
2022-11-24T08:39:39.180Z,3.42
2022-11-24T08:44:40.748Z,3.29
2022-11-24T08:49:42.348Z,3.42
2022-11-24T08:54:44.837Z,3.54
2022-11-24T08:59:46.449Z,3.75
2022-11-24T09:04:48.039Z,3.87
2022-11-24T09:09:49.640Z,3.97
2022-11-24T09:14:51.201Z,3.77
2022-11-24T09:25:11.676Z,3.85
2022-11-24T09:30:13.852Z,3.85
2022-11-24T09:35:15.487Z,4.06
2022-11-24T09:40:17.668Z,4.16
2022-11-24T09:46:05.174Z,4.39
2022-11-24T09:51:11.677Z,4.64
2022-11-24T09:56:22.266Z,4.58
2022-11-24T10:01:31.025Z,4.64
2022-11-24T10:07:23.297Z,4.70
2022-11-24T10:12:55.619Z,4.71
2022-11-24T10:18:05.785Z,4.63
2022-11-24T10:23:47.403Z,4.58
2022-11-24T10:28:55.246Z,4.83
2022-11-24T10:34:18.058Z,4.86
2022-11-24T10:40:00.043Z,4.72
2022-11-24T10:45:22.795Z,4.61
2022-11-24T10:50:27.136Z,4.52
2022-11-24T10:55:56.545Z,4.75
2022-11-24T11:01:02.481Z,4.86
2022-11-24T11:06:10.964Z,5.01
2022-11-24T11:11:29.767Z,4.99
2022-11-24T11:16:43.657Z,4.75
2022-11-24T11:21:45.232Z,4.90
2022-11-24T11:26:46.782Z,4.99
2022-11-24T11:37:28.321Z,4.99
2022-11-24T11:43:01.825Z,5.06
2022-11-24T11:48:20.305Z,4.96
2022-11-24T11:53:38.228Z,5.13
2022-11-24T11:59:11.693Z,5.19
2022-11-24T12:04:34.947Z,5.23
2022-11-24T12:09:55.186Z,5.02
2022-11-24T12:15:34.734Z,5.18
2022-11-24T12:20:52.337Z,5.25
2022-11-24T12:26:14.167Z,5.25
2022-11-24T12:31:36.793Z,5.37
2022-11-24T12:36:41.380Z,5.40
2022-11-24T12:42:01.759Z,5.54
2022-11-24T12:47:09.351Z,5.64
2022-11-24T12:52:31.672Z,5.63
2022-11-24T12:57:56.449Z,5.63
2022-11-24T13:03:13.176Z,5.70
2022-11-24T13:08:16.042Z,5.69
2022-11-24T13:13:17.949Z,5.73
2022-11-24T13:18:53.466Z,5.71
2022-11-24T13:23:58.662Z,5.59
2022-11-24T13:29:17.931Z,5.34
2022-11-24T13:34:42.707Z,5.40
2022-11-24T13:39:50.720Z,5.40
2022-11-24T13:44:54.821Z,5.37
2022-11-24T13:49:57.101Z,5.36
2022-11-24T13:54:59.148Z,5.32
2022-11-24T14:00:01.704Z,5.30
2022-11-24T14:05:03.619Z,5.34
2022-11-24T14:10:05.891Z,5.42
2022-11-24T14:15:27.140Z,5.35
2022-11-24T14:20:28.879Z,5.31
2022-11-24T14:25:32.353Z,5.25
2022-11-24T14:30:34.376Z,5.24
2022-11-24T14:35:36.474Z,5.18
2022-11-24T14:40:50.709Z,5.21
2022-11-24T14:45:56.421Z,5.18
2022-11-24T14:51:19.323Z,5.10
2022-11-24T14:56:26.335Z,4.84
2022-11-24T15:01:27.936Z,4.86
2022-11-24T15:06:29.614Z,4.96
2022-11-24T15:11:32.684Z,4.99
2022-11-24T15:16:34.288Z,4.87
2022-11-24T15:21:37.094Z,4.80
2022-11-24T15:26:42.193Z,4.82
2022-11-24T15:31:49.394Z,4.93
2022-11-24T15:36:54.050Z,4.92
2022-11-24T15:41:55.664Z,4.77
2022-11-24T15:46:57.279Z,4.76
2022-11-24T15:51:59.029Z,4.64
2022-11-24T15:57:00.619Z,4.72
2022-11-24T16:02:02.245Z,4.75
2022-11-24T16:07:06.268Z,4.76
2022-11-24T16:12:08.746Z,4.84
2022-11-24T16:17:10.318Z,4.90
2022-11-24T16:22:11.889Z,4.95
2022-11-24T16:27:13.427Z,4.93
2022-11-24T16:32:15.026Z,4.92
2022-11-24T16:37:16.608Z,4.95
2022-11-24T16:42:18.275Z,4.95
2022-11-24T16:47:20.133Z,4.96
2022-11-24T16:52:21.719Z,4.92
2022-11-24T16:57:23.303Z,4.71
2022-11-24T17:02:25.103Z,4.51
2022-11-24T17:07:26.909Z,4.49
2022-11-24T17:12:28.713Z,4.48
2022-11-24T17:17:30.298Z,4.53
2022-11-24T17:22:31.857Z,4.64
2022-11-24T17:27:33.446Z,4.73
2022-11-24T17:32:35.138Z,4.78
2022-11-24T17:37:37.138Z,4.80
2022-11-24T17:42:38.701Z,4.77
2022-11-24T17:47:40.237Z,4.81
2022-11-24T17:52:41.782Z,4.76
2022-11-24T17:57:43.342Z,4.71
2022-11-24T18:02:44.936Z,4.74
2022-11-24T18:07:46.640Z,4.69
2022-11-24T18:12:48.210Z,4.67
2022-11-24T18:17:52.384Z,4.57
2022-11-24T18:23:09.308Z,4.58
2022-11-24T18:28:10.889Z,4.54
2022-11-24T18:33:12.496Z,4.54
2022-11-24T18:38:14.039Z,4.57
2022-11-24T18:43:15.592Z,4.61
2022-11-24T18:48:17.159Z,4.58
2022-11-24T18:53:19.941Z,4.68
2022-11-24T18:58:21.630Z,4.69
2022-11-24T19:03:23.200Z,4.78
2022-11-24T19:08:24.749Z,4.88
2022-11-24T19:13:26.319Z,4.95
2022-11-24T19:18:31.119Z,4.97
2022-11-24T19:23:32.705Z,4.91
2022-11-24T19:28:34.410Z,4.89
2022-11-24T19:33:36.179Z,4.87
2022-11-24T19:38:38.171Z,4.89
2022-11-24T19:43:40.875Z,4.86
2022-11-24T19:48:44.446Z,4.85
2022-11-24T19:53:46.386Z,4.87
2022-11-24T19:58:48.733Z,4.82
2022-11-24T20:04:01.053Z,4.84
2022-11-24T20:09:05.504Z,4.81
2022-11-24T20:14:10.082Z,4.74
2022-11-24T20:19:13.399Z,4.54
2022-11-24T20:24:24.659Z,4.61
2022-11-24T20:29:29.193Z,4.65
2022-11-24T20:34:30.803Z,4.70
2022-11-24T20:39:32.370Z,4.75
2022-11-24T20:44:34.231Z,4.80
2022-11-24T20:49:36.026Z,4.86
2022-11-24T20:54:38.382Z,4.90
2022-11-24T20:59:39.994Z,4.90
2022-11-24T21:04:41.735Z,4.85
2022-11-24T21:09:43.349Z,4.84
2022-11-24T21:14:44.881Z,4.88
2022-11-24T21:19:46.677Z,4.98
2022-11-24T21:24:48.225Z,5.02
2022-11-24T21:29:49.791Z,5.02
2022-11-24T21:34:51.334Z,5.02
2022-11-24T21:39:53.074Z,4.99
2022-11-24T21:44:54.699Z,5.01
2022-11-24T21:49:56.329Z,5.04
2022-11-24T21:54:57.895Z,5.08
2022-11-24T21:59:59.434Z,5.08
2022-11-24T22:05:01.101Z,5.11
2022-11-24T22:10:02.735Z,5.17
2022-11-24T22:15:04.559Z,5.08
2022-11-24T22:20:06.923Z,5.21
2022-11-24T22:25:08.640Z,5.28
2022-11-24T22:30:10.655Z,5.30
2022-11-24T22:35:12.199Z,5.41
2022-11-24T22:40:13.844Z,5.42
2022-11-24T22:45:15.410Z,5.35
2022-11-24T22:50:17.020Z,5.42
2022-11-24T22:55:18.570Z,5.45
2022-11-24T23:00:20.428Z,5.49
2022-11-24T23:05:22.026Z,5.50
2022-11-24T23:10:23.625Z,5.52
2022-11-24T23:15:25.254Z,5.50
2022-11-24T23:20:26.912Z,5.58
2022-11-24T23:25:28.548Z,5.54
2022-11-24T23:30:30.159Z,5.54
2022-11-24T23:35:33.047Z,5.66
2022-11-24T23:40:34.680Z,5.65
2022-11-24T23:45:36.314Z,5.73
2022-11-24T23:50:37.886Z,5.73
2022-11-24T23:55:39.712Z,5.81
